createdAt,value
2022-09-06T00:02:22.478Z,100728.41
2022-09-06T00:04:50.855Z,100729.53
2022-09-06T00:07:18.895Z,100724.00
2022-09-06T00:09:47.737Z,100726.41
2022-09-06T00:12:17.200Z,100731.19
2022-09-06T00:14:45.490Z,100721.38
2022-09-06T00:17:13.608Z,100726.78
2022-09-06T00:19:41.872Z,100728.47
2022-09-06T00:22:10.069Z,100721.03
2022-09-06T00:24:38.176Z,100723.00
2022-09-06T00:27:06.935Z,100719.19
2022-09-06T00:29:36.953Z,100721.19
2022-09-06T00:32:05.438Z,100720.88
2022-09-06T00:34:33.679Z,100712.66
2022-09-06T00:37:01.853Z,100713.19
2022-09-06T00:39:30.027Z,100724.56
2022-09-06T00:41:58.197Z,100729.69
2022-09-06T00:44:26.322Z,100722.47
2022-09-06T00:46:56.476Z,100730.19
2022-09-06T00:49:27.547Z,100723.09
2022-09-06T00:52:00.358Z,100728.50
2022-09-06T00:54:29.184Z,100735.38
2022-09-06T00:56:59.676Z,100725.56
2022-09-06T00:59:30.918Z,100729.13
2022-09-06T01:02:00.785Z,100730.75
2022-09-06T01:04:30.058Z,100731.97
2022-09-06T01:07:06.737Z,100732.38
2022-09-06T01:09:55.951Z,100730.97
2022-09-06T01:12:38.869Z,100731.06
2022-09-06T01:15:21.952Z,100731.31
2022-09-06T01:18:01.964Z,100732.06
2022-09-06T01:20:43.935Z,100725.97
2022-09-06T01:23:53.736Z,100730.66
2022-09-06T01:26:54.955Z,100730.34
2022-09-06T01:29:33.888Z,100732.75
2022-09-06T01:32:10.273Z,100732.53
2022-09-06T01:34:43.970Z,100730.56
2022-09-06T01:37:15.620Z,100729.09
2022-09-06T01:39:43.919Z,100731.50
2022-09-06T01:42:16.853Z,100726.25
2022-09-06T01:44:51.284Z,100724.41
2022-09-06T01:47:27.435Z,100727.47
2022-09-06T01:50:12.140Z,100727.75
2022-09-06T01:52:50.804Z,100726.41
2022-09-06T01:55:29.890Z,100721.34
2022-09-06T01:58:15.365Z,100713.13
2022-09-06T02:00:52.893Z,100715.09
2022-09-06T02:03:27.786Z,100715.56
2022-09-06T02:05:58.932Z,100712.34
2022-09-06T02:08:31.984Z,100703.97
2022-09-06T02:11:02.979Z,100712.16
2022-09-06T02:13:36.401Z,100713.91
2022-09-06T02:16:07.554Z,100709.72
2022-09-06T02:18:41.454Z,100711.34
2022-09-06T02:21:11.943Z,100703.88
2022-09-06T02:23:44.230Z,100700.13
2022-09-06T02:26:15.165Z,100706.41
2022-09-06T02:28:43.240Z,100706.75
2022-09-06T02:31:19.049Z,100707.59
2022-09-06T02:33:48.500Z,100703.31
2022-09-06T02:36:17.120Z,100705.06
2022-09-06T02:38:46.813Z,100711.09
2022-09-06T02:41:18.470Z,100703.22
2022-09-06T02:43:46.802Z,100703.38
2022-09-06T02:46:16.866Z,100697.25
2022-09-06T02:48:45.041Z,100701.38
2022-09-06T02:51:13.233Z,100703.72
2022-09-06T02:53:41.912Z,100696.03
2022-09-06T02:56:10.200Z,100700.56
2022-09-06T02:58:38.378Z,100694.09
2022-09-06T03:01:06.880Z,100699.22
2022-09-06T03:03:36.527Z,100695.22
2022-09-06T03:06:04.647Z,100702.22
2022-09-06T03:08:34.235Z,100698.38
2022-09-06T03:11:02.854Z,100698.13
2022-09-06T03:13:31.191Z,100686.78
2022-09-06T03:16:00.866Z,100697.28
2022-09-06T03:18:30.969Z,100702.97
2022-09-06T03:21:00.804Z,100700.03
2022-09-06T03:23:30.036Z,100695.59
2022-09-06T03:25:58.366Z,100695.22
2022-09-06T03:28:26.673Z,100697.59
2022-09-06T03:30:55.013Z,100696.94
2022-09-06T03:33:23.722Z,100702.84
2022-09-06T03:35:53.675Z,100703.94
2022-09-06T03:38:23.698Z,100709.06
2022-09-06T03:40:52.913Z,100701.69
2022-09-06T03:43:23.066Z,100706.91
2022-09-06T03:45:53.321Z,100692.72
2022-09-06T03:48:23.720Z,100701.28
2022-09-06T03:50:55.052Z,100706.16
2022-09-06T03:53:25.553Z,100696.13
2022-09-06T03:55:55.493Z,100706.19
2022-09-06T03:58:26.206Z,100699.81
2022-09-06T04:01:02.080Z,100708.38
2022-09-06T04:03:30.203Z,100703.22
2022-09-06T04:05:58.276Z,100695.88
2022-09-06T04:08:28.143Z,100694.91
2022-09-06T04:10:57.151Z,100700.81
2022-09-06T04:13:26.208Z,100704.34
2022-09-06T04:15:54.797Z,100712.91
2022-09-06T04:18:23.135Z,100712.06
2022-09-06T04:20:52.781Z,100703.13
2022-09-06T04:23:22.395Z,100707.63
2022-09-06T04:25:54.092Z,100708.16
2022-09-06T04:28:23.216Z,100709.47
2022-09-06T04:30:54.630Z,100717.19
2022-09-06T04:33:25.849Z,100711.06
2022-09-06T04:35:54.433Z,100711.56
2022-09-06T04:38:22.523Z,100708.50
2022-09-06T04:40:51.944Z,100713.88
2022-09-06T04:43:20.165Z,100714.63
2022-09-06T04:45:48.426Z,100712.78
2022-09-06T04:48:16.946Z,100714.00
2022-09-06T04:50:45.160Z,100716.69
2022-09-06T04:53:13.638Z,100710.56
2022-09-06T04:55:41.762Z,100709.44
2022-09-06T04:58:11.568Z,100715.31
2022-09-06T05:00:41.778Z,100705.88
2022-09-06T05:03:10.132Z,100697.25
2022-09-06T05:05:38.204Z,100692.84
2022-09-06T05:08:06.245Z,100693.34
2022-09-06T05:10:34.617Z,100699.47
2022-09-06T05:13:02.751Z,100693.97
2022-09-06T05:15:33.647Z,100698.72
2022-09-06T05:18:06.726Z,100700.13
2022-09-06T05:20:35.397Z,100701.59
2022-09-06T05:23:03.462Z,100706.09
2022-09-06T05:25:31.533Z,100701.59
2022-09-06T05:27:59.594Z,100698.13
2022-09-06T05:30:27.745Z,100705.88
2022-09-06T05:32:57.174Z,100707.59
2022-09-06T05:35:25.341Z,100704.41
2022-09-06T05:37:53.418Z,100702.97
2022-09-06T05:40:21.515Z,100692.16
2022-09-06T05:42:49.717Z,100701.97
2022-09-06T05:45:18.007Z,100708.88
2022-09-06T05:47:46.222Z,100711.84
2022-09-06T05:50:16.239Z,100720.91
2022-09-06T05:52:44.588Z,100715.81
2022-09-06T05:55:12.941Z,100711.47
2022-09-06T05:57:41.586Z,100703.56
2022-09-06T06:00:12.308Z,100709.72
2022-09-06T06:02:40.952Z,100708.84
2022-09-06T06:05:09.666Z,100703.41
2022-09-06T06:07:39.153Z,100706.28
2022-09-06T06:10:08.188Z,100699.56
2022-09-06T06:12:36.388Z,100694.31
2022-09-06T06:15:05.975Z,100702.59
2022-09-06T06:17:34.193Z,100709.41
2022-09-06T06:20:03.036Z,100702.72
2022-09-06T06:22:31.313Z,100703.97
2022-09-06T06:25:00.714Z,100707.28
2022-09-06T06:27:28.980Z,100708.28
2022-09-06T06:29:57.002Z,100700.84
2022-09-06T06:32:25.677Z,100710.50
2022-09-06T06:34:53.779Z,100703.88
2022-09-06T06:37:21.908Z,100702.41
2022-09-06T06:39:50.116Z,100704.41
2022-09-06T06:42:19.728Z,100696.56
2022-09-06T06:44:47.915Z,100701.38
2022-09-06T06:47:16.063Z,100701.56
2022-09-06T06:49:44.184Z,100706.81
2022-09-06T06:52:12.341Z,100707.41
2022-09-06T06:54:41.779Z,100716.22
2022-09-06T06:57:10.258Z,100715.63
2022-09-06T06:59:40.136Z,100724.44
2022-09-06T07:02:08.564Z,100719.00
2022-09-06T07:04:37.028Z,100720.75
2022-09-06T07:12:41.949Z,100715.50
2022-09-06T07:15:12.030Z,100721.09
2022-09-06T07:17:40.094Z,100721.63
2022-09-06T07:22:41.356Z,100720.94
2022-09-06T07:25:12.180Z,100728.31
2022-09-06T07:27:49.091Z,100726.47
2022-09-06T07:30:20.276Z,100723.66
2022-09-06T07:32:48.902Z,100729.53
2022-09-06T07:35:17.557Z,100726.53
2022-09-06T07:37:53.064Z,100722.19
2022-09-06T07:40:21.427Z,100720.44
2022-09-06T07:42:49.563Z,100722.75
2022-09-06T07:45:19.081Z,100718.13
2022-09-06T07:53:26.294Z,100723.31
2022-09-06T07:55:58.790Z,100724.28
2022-09-06T07:58:27.396Z,100729.59
2022-09-06T08:01:15.447Z,100723.47
2022-09-06T08:03:43.602Z,100720.84
2022-09-06T08:06:11.981Z,100722.19
2022-09-06T08:11:26.472Z,100720.16
2022-09-06T08:13:56.050Z,100718.00
2022-09-06T08:16:28.041Z,100717.25
2022-09-06T08:18:58.388Z,100724.44
2022-09-06T08:21:28.367Z,100717.94
2022-09-06T08:23:59.289Z,100716.38
2022-09-06T08:26:28.984Z,100711.56
2022-09-06T08:28:59.177Z,100708.25
2022-09-06T08:31:30.351Z,100705.66
2022-09-06T08:34:00.286Z,100704.97
2022-09-06T08:36:30.880Z,100698.06
2022-09-06T08:39:00.158Z,100700.31
2022-09-06T08:41:31.687Z,100701.09
2022-09-06T08:46:58.682Z,100692.72
2022-09-06T08:49:30.413Z,100692.09
2022-09-06T08:52:10.580Z,100690.03
2022-09-06T08:54:43.584Z,100690.41
2022-09-06T08:57:16.184Z,100689.03
2022-09-06T08:59:44.444Z,100686.28
2022-09-06T09:02:17.162Z,100689.22
2022-09-06T09:04:48.316Z,100682.91
2022-09-06T09:07:39.983Z,100687.34
2022-09-06T09:10:13.542Z,100685.31
2022-09-06T09:12:46.966Z,100688.38
2022-09-06T09:15:17.914Z,100682.91
2022-09-06T09:17:50.333Z,100679.19
2022-09-06T09:20:19.193Z,100663.34
2022-09-06T09:22:47.776Z,100673.38
2022-09-06T09:25:21.170Z,100675.75
2022-09-06T09:27:57.488Z,100678.50
2022-09-06T09:33:28.993Z,100662.81
2022-09-06T09:35:59.638Z,100661.78
2022-09-06T09:38:31.028Z,100654.63
2022-09-06T09:41:02.070Z,100648.69
2022-09-06T09:43:32.454Z,100652.13
2022-09-06T09:46:16.235Z,100643.94
2022-09-06T09:49:00.343Z,100638.63
2022-09-06T09:51:28.900Z,100632.69
2022-09-06T09:53:58.334Z,100630.28
2022-09-06T09:56:35.407Z,100629.44
2022-09-06T09:59:04.781Z,100628.56
2022-09-06T10:01:34.178Z,100627.72
2022-09-06T10:07:09.627Z,100621.59
2022-09-06T10:09:40.746Z,100614.09
2022-09-06T10:12:09.202Z,100610.31
2022-09-06T10:14:44.214Z,100615.09
2022-09-06T10:17:21.980Z,100604.03
2022-09-06T10:19:51.590Z,100602.44
2022-09-06T10:22:27.760Z,100605.75
2022-09-06T10:25:24.425Z,100593.03
2022-09-06T10:28:23.909Z,100596.19
2022-09-06T10:31:05.516Z,100585.91
2022-09-06T10:33:45.092Z,100587.59
2022-09-06T10:36:21.006Z,100583.69
2022-09-06T10:38:55.429Z,100588.34
2022-09-06T10:41:35.548Z,100581.16
2022-09-06T10:44:16.141Z,100578.94
2022-09-06T10:46:46.420Z,100576.75
2022-09-06T10:49:18.839Z,100569.09
2022-09-06T10:51:53.357Z,100564.06
2022-09-06T10:54:24.095Z,100562.06
2022-09-06T10:56:57.331Z,100569.53
2022-09-06T11:02:14.054Z,100568.44
2022-09-06T11:07:38.223Z,100565.38
2022-09-06T11:10:15.028Z,100566.25
2022-09-06T11:12:50.129Z,100563.22
2022-09-06T11:15:20.312Z,100560.69
2022-09-06T11:17:55.671Z,100557.47
2022-09-06T11:20:31.939Z,100549.03
2022-09-06T11:23:31.192Z,100554.38
2022-09-06T11:26:37.515Z,100543.28
2022-09-06T11:29:09.460Z,100552.28
2022-09-06T11:34:44.165Z,100533.59
2022-09-06T11:37:26.634Z,100533.25
2022-09-06T11:40:30.906Z,100542.84
2022-09-06T11:43:44.459Z,100533.03
2022-09-06T11:46:12.676Z,100535.97
2022-09-06T11:49:00.727Z,100525.63
2022-09-06T11:51:35.180Z,100529.22
2022-09-06T11:54:24.005Z,100519.41
2022-09-06T11:56:58.798Z,100513.94
2022-09-06T11:59:37.229Z,100515.16
2022-09-06T12:02:06.901Z,100513.38
2022-09-06T12:05:14.300Z,100505.25
2022-09-06T12:08:25.872Z,100500.59
2022-09-06T12:10:59.448Z,100496.22
2022-09-06T12:13:48.813Z,100498.84
2022-09-06T12:16:18.836Z,100484.63
2022-09-06T12:19:03.255Z,100490.59
2022-09-06T12:21:46.053Z,100481.28
2022-09-06T12:24:50.678Z,100486.75
2022-09-06T12:27:19.906Z,100488.84
2022-09-06T12:29:58.490Z,100487.06
2022-09-06T12:32:31.708Z,100478.19
2022-09-06T12:37:57.221Z,100467.06
2022-09-06T12:40:27.645Z,100463.00
2022-09-06T12:42:55.867Z,100444.69
2022-09-06T12:45:27.689Z,100442.59
2022-09-06T12:48:08.097Z,100447.28
2022-09-06T12:50:36.731Z,100439.41
2022-09-06T12:53:23.322Z,100442.50
2022-09-06T12:56:03.929Z,100442.72
2022-09-06T12:58:32.265Z,100438.28
2022-09-06T13:01:10.387Z,100435.34
2022-09-06T13:03:45.191Z,100429.06
2022-09-06T13:06:23.225Z,100425.13
2022-09-06T13:08:59.880Z,100418.03
2022-09-06T13:11:34.274Z,100414.59
2022-09-06T13:14:14.038Z,100411.19
2022-09-06T13:16:48.482Z,100405.44
2022-09-06T13:19:19.042Z,100402.09
2022-09-06T13:21:49.538Z,100400.28
2022-09-06T13:24:22.523Z,100392.34
2022-09-06T13:26:51.356Z,100390.88
2022-09-06T13:29:30.596Z,100394.66
2022-09-06T13:32:02.409Z,100396.91
2022-09-06T13:34:32.785Z,100392.88
2022-09-06T13:37:03.458Z,100385.91
2022-09-06T13:39:34.064Z,100389.81
2022-09-06T13:42:07.480Z,100376.50
2022-09-06T13:44:37.088Z,100381.66
2022-09-06T13:47:07.377Z,100379.41
2022-09-06T13:49:35.776Z,100375.88
2022-09-06T13:52:05.748Z,100377.06
2022-09-06T13:54:34.139Z,100373.84
2022-09-06T13:57:02.883Z,100373.88
2022-09-06T13:59:31.683Z,100367.00
2022-09-06T14:02:03.018Z,100373.84
2022-09-06T14:04:32.979Z,100361.41
2022-09-06T14:07:01.140Z,100365.41
2022-09-06T14:09:30.197Z,100364.28
2022-09-06T14:11:58.473Z,100368.56
2022-09-06T14:14:26.631Z,100362.97
2022-09-06T14:16:57.076Z,100362.91
2022-09-06T14:19:25.763Z,100355.41
2022-09-06T14:21:55.218Z,100354.94
2022-09-06T14:24:23.525Z,100359.19
2022-09-06T14:26:52.034Z,100350.66
2022-09-06T14:29:20.107Z,100352.47
2022-09-06T14:31:48.477Z,100356.81
2022-09-06T14:34:16.675Z,100347.78
2022-09-06T14:36:44.743Z,100350.91
2022-09-06T14:39:14.297Z,100348.72
2022-09-06T14:41:42.448Z,100348.06
2022-09-06T14:44:10.825Z,100348.84
2022-09-06T14:46:39.261Z,100349.59
2022-09-06T14:49:10.143Z,100344.38
2022-09-06T14:51:39.791Z,100346.94
2022-09-06T14:54:10.259Z,100340.06
2022-09-06T14:56:41.282Z,100349.06
2022-09-06T14:59:09.671Z,100347.91
2022-09-06T15:01:39.045Z,100347.66
2022-09-06T15:04:09.266Z,100344.22
2022-09-06T15:06:40.312Z,100351.69
2022-09-06T15:09:11.414Z,100359.69
2022-09-06T15:11:42.977Z,100354.53
2022-09-06T15:14:15.944Z,100345.56
2022-09-06T15:16:44.547Z,100356.69
2022-09-06T15:19:13.006Z,100355.75
2022-09-06T15:21:42.020Z,100354.47
2022-09-06T15:24:12.131Z,100363.09
2022-09-06T15:26:42.958Z,100358.03
2022-09-06T15:29:12.397Z,100364.63
2022-09-06T15:31:41.937Z,100367.72
2022-09-06T15:34:11.247Z,100359.88
2022-09-06T15:36:39.478Z,100361.66
2022-09-06T15:39:07.647Z,100356.66
2022-09-06T15:41:39.690Z,100370.41
2022-09-06T15:44:11.906Z,100372.88
2022-09-06T15:46:49.190Z,100372.50
2022-09-06T15:49:19.508Z,100375.63
2022-09-06T15:51:48.034Z,100375.97
2022-09-06T15:54:18.146Z,100361.91
2022-09-06T15:56:45.669Z,100366.84
2022-09-06T15:59:15.281Z,100369.94
2022-09-06T16:01:43.402Z,100374.69
2022-09-06T16:04:11.567Z,100374.66
2022-09-06T16:06:42.747Z,100370.38
2022-09-06T16:09:14.173Z,100368.84
2022-09-06T16:11:43.022Z,100379.22
2022-09-06T16:14:13.967Z,100380.81
2022-09-06T16:16:44.211Z,100388.34
2022-09-06T16:19:13.562Z,100396.06
2022-09-06T16:21:43.745Z,100398.63
2022-09-06T16:24:14.809Z,100397.59
2022-09-06T16:26:44.486Z,100398.63
2022-09-06T16:29:14.548Z,100394.53
2022-09-06T16:31:44.390Z,100408.00
2022-09-06T16:34:14.019Z,100403.06
2022-09-06T16:36:43.168Z,100404.75
2022-09-06T16:39:11.773Z,100403.22
2022-09-06T16:41:41.911Z,100408.66
2022-09-06T16:44:14.484Z,100390.13
2022-09-06T16:46:44.607Z,100388.44
2022-09-06T16:49:13.137Z,100384.84
2022-09-06T16:51:41.277Z,100381.97
2022-09-06T16:54:09.597Z,100382.91
2022-09-06T16:56:38.370Z,100391.06
2022-09-06T16:59:09.342Z,100392.13
2022-09-06T17:01:41.529Z,100389.38
2022-09-06T17:04:15.720Z,100389.03
2022-09-06T17:06:45.824Z,100385.41
2022-09-06T17:09:15.192Z,100388.31
2022-09-06T17:11:43.320Z,100382.31
2022-09-06T17:14:11.718Z,100385.41
2022-09-06T17:16:57.886Z,100392.00
2022-09-06T17:19:27.898Z,100390.63
2022-09-06T17:21:56.109Z,100394.19
2022-09-06T17:24:24.943Z,100406.09
2022-09-06T17:26:53.577Z,100407.94
2022-09-06T17:29:21.908Z,100412.47
2022-09-06T17:31:50.078Z,100406.25
2022-09-06T17:34:20.518Z,100407.16
2022-09-06T17:36:49.983Z,100417.81
2022-09-06T17:39:21.008Z,100413.50
2022-09-06T17:41:50.726Z,100412.38
2022-09-06T17:44:20.323Z,100424.03
2022-09-06T17:47:11.552Z,100413.72
2022-09-06T17:49:37.884Z,100423.50
2022-09-06T17:52:07.380Z,100420.13
2022-09-06T17:54:35.666Z,100430.66
2022-09-06T17:57:04.160Z,100429.63
2022-09-06T17:59:35.497Z,100426.59
2022-09-06T18:02:05.244Z,100424.78
2022-09-06T18:04:34.874Z,100420.53
2022-09-06T18:07:03.488Z,100421.34
2022-09-06T18:09:33.472Z,100426.66
2022-09-06T18:12:02.039Z,100422.09
2022-09-06T18:14:31.233Z,100416.13
2022-09-06T18:17:00.073Z,100414.56
2022-09-06T18:19:28.663Z,100424.19
2022-09-06T18:21:57.428Z,100419.34
2022-09-06T18:24:26.171Z,100411.38
2022-09-06T18:26:55.952Z,100424.69
2022-09-06T18:29:24.635Z,100424.69
2022-09-06T18:31:54.262Z,100427.06
2022-09-06T18:34:22.839Z,100428.66
2022-09-06T18:36:51.157Z,100427.56
2022-09-06T18:39:20.521Z,100433.31
2022-09-06T18:42:07.131Z,100430.25
2022-09-06T18:44:37.578Z,100419.69
2022-09-06T18:47:08.665Z,100422.56
2022-09-06T18:49:41.814Z,100430.81
2022-09-06T18:52:12.268Z,100431.28
2022-09-06T18:54:40.628Z,100424.78
2022-09-06T18:57:09.361Z,100430.97
2022-09-06T18:59:39.074Z,100425.78
2022-09-06T19:02:07.615Z,100431.91
2022-09-06T19:04:35.835Z,100436.31
2022-09-06T19:07:04.650Z,100438.66
2022-09-06T19:09:32.902Z,100438.41
2022-09-06T19:12:01.654Z,100442.66
2022-09-06T19:14:29.917Z,100432.03
2022-09-06T19:16:59.400Z,100436.53
2022-09-06T19:19:27.693Z,100431.88
2022-09-06T19:21:55.895Z,100426.09
2022-09-06T19:24:24.676Z,100430.03
2022-09-06T19:26:55.239Z,100423.91
2022-09-06T19:29:23.521Z,100427.63
2022-09-06T19:31:53.206Z,100430.88
2022-09-06T19:34:23.323Z,100433.41
2022-09-06T19:36:55.189Z,100425.28
2022-09-06T19:39:23.723Z,100426.66
2022-09-06T19:41:51.910Z,100429.91
2022-09-06T19:44:20.736Z,100430.16
2022-09-06T19:46:49.858Z,100432.81
2022-09-06T19:49:20.255Z,100417.81
2022-09-06T19:51:50.921Z,100424.50
2022-09-06T19:54:19.652Z,100409.56
2022-09-06T19:56:50.129Z,100409.00
2022-09-06T19:59:18.745Z,100407.00
2022-09-06T20:01:47.933Z,100400.56
2022-09-06T20:04:17.093Z,100402.91
2022-09-06T20:06:46.050Z,100394.38
2022-09-06T20:09:16.558Z,100400.09
2022-09-06T20:11:45.058Z,100398.69
2022-09-06T20:14:13.714Z,100402.09
2022-09-06T20:16:42.775Z,100391.28
2022-09-06T20:19:13.018Z,100396.97
2022-09-06T20:21:41.812Z,100395.09
2022-09-06T20:24:10.213Z,100404.50
2022-09-06T20:26:40.403Z,100408.06
2022-09-06T20:29:09.111Z,100411.50
2022-09-06T20:31:38.423Z,100411.81
2022-09-06T20:34:11.130Z,100408.16
2022-09-06T20:36:39.555Z,100414.34
2022-09-06T20:39:08.043Z,100409.00
2022-09-06T20:41:36.305Z,100401.16
2022-09-06T20:44:05.823Z,100404.97
2022-09-06T20:46:36.064Z,100394.59
2022-09-06T20:49:05.111Z,100399.44
2022-09-06T20:51:34.451Z,100403.03
2022-09-06T20:54:05.857Z,100402.00
2022-09-06T20:56:35.686Z,100407.56
2022-09-06T20:59:08.578Z,100416.88
2022-09-06T21:01:40.228Z,100415.16
2022-09-06T21:04:10.095Z,100411.16
2022-09-06T21:06:40.071Z,100404.88
2022-09-06T21:09:10.626Z,100391.06
2022-09-06T21:11:39.373Z,100385.25
2022-09-06T21:14:09.436Z,100396.22
2022-09-06T21:16:38.759Z,100394.91
2022-09-06T21:19:09.257Z,100392.19
2022-09-06T21:21:38.523Z,100386.38
2022-09-06T21:24:08.589Z,100387.81
2022-09-06T21:26:36.931Z,100380.97
2022-09-06T21:29:05.331Z,100390.06
2022-09-06T21:31:37.017Z,100387.53
2022-09-06T21:34:09.790Z,100389.53
2022-09-06T21:36:41.696Z,100383.53
2022-09-06T21:39:12.309Z,100386.25
2022-09-06T21:41:42.415Z,100390.91
2022-09-06T21:44:10.618Z,100392.09
2022-09-06T21:46:41.221Z,100379.53
2022-09-06T21:49:11.842Z,100376.69
2022-09-06T21:51:40.876Z,100371.88
2022-09-06T21:54:08.977Z,100380.84
2022-09-06T21:56:38.918Z,100385.69
2022-09-06T21:59:08.781Z,100388.22
2022-09-06T22:01:40.355Z,100381.72
2022-09-06T22:04:09.437Z,100385.56
2022-09-06T22:06:37.822Z,100367.63
2022-09-06T22:09:11.599Z,100380.06
2022-09-06T22:11:41.250Z,100382.31
2022-09-06T22:14:12.232Z,100389.72
2022-09-06T22:16:42.688Z,100388.59
2022-09-06T22:19:11.958Z,100390.13
2022-09-06T22:21:41.009Z,100388.00
2022-09-06T22:24:11.553Z,100389.56
2022-09-06T22:26:41.024Z,100387.16
2022-09-06T22:29:11.344Z,100384.44
2022-09-06T22:31:41.496Z,100378.31
2022-09-06T22:34:10.425Z,100384.19
2022-09-06T22:36:38.850Z,100382.78
2022-09-06T22:39:06.962Z,100382.88
2022-09-06T22:41:35.238Z,100384.63
2022-09-06T22:44:04.903Z,100379.91
2022-09-06T22:46:33.618Z,100378.47
2022-09-06T22:49:04.132Z,100378.34
2022-09-06T22:51:32.276Z,100379.63
2022-09-06T22:54:00.471Z,100381.03
2022-09-06T22:56:28.688Z,100369.22
2022-09-06T22:58:56.820Z,100362.22
2022-09-06T23:01:24.936Z,100370.19
2022-09-06T23:03:53.223Z,100367.09
2022-09-06T23:06:23.319Z,100368.41
2022-09-06T23:08:51.464Z,100360.56
2022-09-06T23:11:20.357Z,100361.00
2022-09-06T23:13:48.709Z,100361.13
2022-09-06T23:16:19.128Z,100371.22
2022-09-06T23:18:48.339Z,100363.41
2022-09-06T23:21:19.140Z,100366.56
2022-09-06T23:23:49.836Z,100356.00
2022-09-06T23:26:19.661Z,100367.66
2022-09-06T23:28:51.250Z,100358.84
2022-09-06T23:31:19.970Z,100362.56
2022-09-06T23:33:48.122Z,100361.22
2022-09-06T23:36:16.199Z,100361.09
2022-09-06T23:38:44.845Z,100362.56
2022-09-06T23:41:14.593Z,100350.84
2022-09-06T23:43:43.952Z,100352.56
2022-09-06T23:46:14.596Z,100352.00
2022-09-06T23:48:43.356Z,100352.00
2022-09-06T23:51:12.986Z,100354.84
2022-09-06T23:53:41.436Z,100354.06
2022-09-06T23:56:09.917Z,100355.22
2022-09-06T23:58:40.209Z,100351.81
